Tropical Cyclones
[Index]
Main Index Home Page Stock Weather Photos Extreme Storms Discussion Storm News and Storm Chasing Reports Tropical Cyclones / Hurricanes / Typhoons Weather Data and Links Wild Fires / Bushfires Weather Observation Techniques Weather Picture Catalogue Tornado Pictures and Reports Stock Video Footage and DVDs for sale
Season 1971-1972 Tropical Cyclone EMILY Track Map
Season 1971-1972 Summaries: [BoM-AU] [JTWC-AU] [JTWC-SIO] [JTWC-SPAC] [JTWC-SH]
<<- Previous TC | BoM 1971-1972 Season | Next TC ->>

click for intensity scale information  Lat/long Grid: Show Hide

 Date Labels: Show Hide

Bureau of Meteorology Tropical Cyclone Data

Name: EMILY
Number: 493 / 197172_15

27 Mar 1972 23:00 UTC to 02 Apr 1972 14:00 UTC

    date/time    lat    long    hPa   cat  kts
1972-03-27 23   11.0   157.5   1000                     
1972-03-28 02   11.3   157.8    999                     
1972-03-28 05   11.6   158.0    998                     
1972-03-28 08   11.9   158.2    999                     
1972-03-28 11   12.1   158.5    999                     
1972-03-28 14   12.2   158.7    997                     
1972-03-28 17   12.3   158.8    995    1                
1972-03-28 20   12.4   158.9    992    1                
1972-03-28 23   12.5   159.0    990    1                
1972-03-29 02   12.6   159.1    985    2                
1972-03-29 05   12.9   159.2    980    2                
1972-03-29 08   12.9   159.2    975    2                
1972-03-29 11   13.0   159.2    970    3                
1972-03-29 14   13.1   159.2    965    3                
1972-03-29 17   13.2   159.2    960    3                
1972-03-29 20   13.3   159.2    956    3                
1972-03-29 23   13.5   159.2    953    4                
1972-03-30 02   13.8   159.1    950    4                
1972-03-30 05   14.2   159.0    948    4                
1972-03-30 08   14.6   158.8    946    4                
1972-03-30 11   15.0   158.6    944    4                
1972-03-30 14   15.4   158.5    943    4                
1972-03-30 17   15.7   158.3    942    4                
1972-03-30 20   16.1   158.2    942    4                
1972-03-30 23   16.5   158.0    942    4                
1972-03-31 02   16.8   157.5    943    4                
1972-03-31 05   17.3   157.1    944    4                
1972-03-31 08   17.8   156.6    945    4                
1972-03-31 11   18.3   156.1    947    4                
1972-03-31 14   18.7   155.7    949    4                
1972-03-31 17   19.2   155.2    950    4                
1972-03-31 20   19.7   154.7    952    4                
1972-03-31 23   20.1   154.2    954    4                
1972-04-01 02   20.7   153.8    955    4                
1972-04-01 05   21.0   153.5    957    3                
1972-04-01 08   21.4   153.2    959    3                
1972-04-01 11   21.8   152.8    961    3                
1972-04-01 14   22.1   152.6    964    3                
1972-04-01 17   22.5   152.3    967    3                
1972-04-01 20   22.8   152.0    970    3                
1972-04-01 23   23.3   151.7    974    2                
1972-04-02 02   24.0   151.3    985    2                
1972-04-02 05   24.5   151.1    993    1                
1972-04-02 08   24.8   151.1    999                     
1972-04-02 11   25.2   151.2   1002                     
1972-04-02 14   25.3   151.3   1004                     
Winds are 10-min average.

Tropical cyclone tracks developed by Michael Bath using data from the Bureau of Meteorology and Google Maps.


[Australian Severe Weather index] [Copyright Notice] [Email Contacts] [Search This Site] [Privacy Policy]
Document: tropical_cyclone_emily.htm Updated: 30 May 2013